sensor_id;sensor_type;location;lat;lon;timestamp;pressure;altitude;pressure_sealevel;temperature;humidity
21623;BME280;10973;46.706;12.340;2023-04-29T00:01:12;87257.19;;;10.25;59.47
21623;BME280;10973;46.706;12.340;2023-04-29T00:03:40;87263.22;;;10.22;59.21
21623;BME280;10973;46.706;12.340;2023-04-29T00:06:07;87268.47;;;10.15;59.31
21623;BME280;10973;46.706;12.340;2023-04-29T00:08:35;87265.03;;;10.11;59.18
21623;BME280;10973;46.706;12.340;2023-04-29T00:11:02;87258.63;;;10.08;59.35
21623;BME280;10973;46.706;12.340;2023-04-29T00:13:29;87260.88;;;10.06;59.56
21623;BME280;10973;46.706;12.340;2023-04-29T00:15:56;87262.75;;;10.05;59.64
21623;BME280;10973;46.706;12.340;2023-04-29T00:18:24;87253.66;;;9.96;59.82
21623;BME280;10973;46.706;12.340;2023-04-29T00:20:51;87248.44;;;10.03;59.72
21623;BME280;10973;46.706;12.340;2023-04-29T00:23:18;87248.44;;;10.06;59.81
21623;BME280;10973;46.706;12.340;2023-04-29T00:25:45;87251.47;;;10.05;60.15
21623;BME280;10973;46.706;12.340;2023-04-29T00:28:13;87251.84;;;10.07;60.13
21623;BME280;10973;46.706;12.340;2023-04-29T00:30:40;87258.97;;;10.06;60.27
21623;BME280;10973;46.706;12.340;2023-04-29T00:33:07;87266.50;;;10.04;60.21
21623;BME280;10973;46.706;12.340;2023-04-29T00:35:35;87258.97;;;10.03;59.99
21623;BME280;10973;46.706;12.340;2023-04-29T00:38:02;87262.31;;;9.96;59.92
21623;BME280;10973;46.706;12.340;2023-04-29T00:40:29;87256.69;;;9.94;59.91
21623;BME280;10973;46.706;12.340;2023-04-29T00:42:57;87257.41;;;9.91;60.01
21623;BME280;10973;46.706;12.340;2023-04-29T00:45:24;87255.16;;;9.90;60.17
21623;BME280;10973;46.706;12.340;2023-04-29T00:47:51;87270.19;;;9.89;60.22
21623;BME280;10973;46.706;12.340;2023-04-29T00:50:21;87267.94;;;9.88;60.26
21623;BME280;10973;46.706;12.340;2023-04-29T00:52:48;87273.19;;;9.88;60.33
21623;BME280;10973;46.706;12.340;2023-04-29T00:55:16;87272.81;;;9.89;60.19
21623;BME280;10973;46.706;12.340;2023-04-29T00:57:44;87275.78;;;9.84;60.29
21623;BME280;10973;46.706;12.340;2023-04-29T01:00:12;87282.19;;;9.83;60.00
21623;BME280;10973;46.706;12.340;2023-04-29T01:02:39;87272.00;;;9.78;60.04
21623;BME280;10973;46.706;12.340;2023-04-29T01:05:07;87270.47;;;9.77;59.78
21623;BME280;10973;46.706;12.340;2023-04-29T01:11:02;87268.56;;;9.67;60.03
21623;BME280;10973;46.706;12.340;2023-04-29T01:13:42;87258.03;;;9.71;60.06
21623;BME280;10973;46.706;12.340;2023-04-29T01:16:42;87254.31;;;9.72;60.17
21623;BME280;10973;46.706;12.340;2023-04-29T01:19:43;87249.03;;;9.72;60.01
21623;BME280;10973;46.706;12.340;2023-04-29T01:22:13;87250.91;;;9.71;60.00
21623;BME280;10973;46.706;12.340;2023-04-29T01:24:40;87242.25;;;9.71;59.84
21623;BME280;10973;46.706;12.340;2023-04-29T01:27:36;87237.72;;;9.68;60.11
21623;BME280;10973;46.706;12.340;2023-04-29T01:32:48;87234.69;;;9.66;60.16
21623;BME280;10973;46.706;12.340;2023-04-29T01:41:43;87254.16;;;9.47;59.66
21623;BME280;10973;46.706;12.340;2023-04-29T01:44:18;87236.09;;;9.46;59.60
21623;BME280;10973;46.706;12.340;2023-04-29T01:46:51;87235.69;;;9.40;59.50
21623;BME280;10973;46.706;12.340;2023-04-29T01:49:25;87245.78;;;9.34;59.69
21623;BME280;10973;46.706;12.340;2023-04-29T01:51:53;87242.41;;;9.34;59.50
21623;BME280;10973;46.706;12.340;2023-04-29T01:54:21;87240.50;;;9.31;59.68
21623;BME280;10973;46.706;12.340;2023-04-29T01:56:48;87247.22;;;9.25;59.95
21623;BME280;10973;46.706;12.340;2023-04-29T01:59:16;87247.59;;;9.27;59.64
21623;BME280;10973;46.706;12.340;2023-04-29T02:01:43;87239.31;;;9.25;59.49
21623;BME280;10973;46.706;12.340;2023-04-29T02:04:10;87243.47;;;9.26;59.52
21623;BME280;10973;46.706;12.340;2023-04-29T02:06:38;87242.69;;;9.22;59.55
21623;BME280;10973;46.706;12.340;2023-04-29T02:09:05;87233.69;;;9.23;59.64
21623;BME280;10973;46.706;12.340;2023-04-29T02:11:32;87235.19;;;9.24;60.18
21623;BME280;10973;46.706;12.340;2023-04-29T02:13:59;87241.25;;;9.31;60.40
21623;BME280;10973;46.706;12.340;2023-04-29T02:16:27;87247.31;;;9.36;60.37
21623;BME280;10973;46.706;12.340;2023-04-29T02:18:54;87241.34;;;9.42;60.49
21623;BME280;10973;46.706;12.340;2023-04-29T02:21:21;87236.09;;;9.46;60.47
21623;BME280;10973;46.706;12.340;2023-04-29T02:23:49;87240.59;;;9.45;60.50
21623;BME280;10973;46.706;12.340;2023-04-29T02:26:16;87232.72;;;9.49;60.47
21623;BME280;10973;46.706;12.340;2023-04-29T02:28:43;87235.03;;;9.54;60.46
21623;BME280;10973;46.706;12.340;2023-04-29T02:31:11;87231.63;;;9.53;60.54
21623;BME280;10973;46.706;12.340;2023-04-29T02:33:38;87227.88;;;9.54;60.36
21623;BME280;10973;46.706;12.340;2023-04-29T02:36:05;87229.38;;;9.55;60.38
21623;BME280;10973;46.706;12.340;2023-04-29T02:38:33;87231.63;;;9.57;60.45
21623;BME280;10973;46.706;12.340;2023-04-29T02:41:00;87229.38;;;9.55;60.34
21623;BME280;10973;46.706;12.340;2023-04-29T02:43:27;87223.03;;;9.56;60.61
21623;BME280;10973;46.706;12.340;2023-04-29T02:45:54;87214.38;;;9.59;60.45
21623;BME280;10973;46.706;12.340;2023-04-29T02:48:22;87210.25;;;9.58;60.68
21623;BME280;10973;46.706;12.340;2023-04-29T02:50:49;87209.50;;;9.61;60.34
21623;BME280;10973;46.706;12.340;2023-04-29T02:53:17;87209.16;;;9.63;60.29
21623;BME280;10973;46.706;12.340;2023-04-29T02:55:44;87208.00;;;9.64;60.38
21623;BME280;10973;46.706;12.340;2023-04-29T02:58:12;87209.53;;;9.65;60.11
21623;BME280;10973;46.706;12.340;2023-04-29T03:00:42;87217.78;;;9.63;60.16
21623;BME280;10973;46.706;12.340;2023-04-29T03:03:09;87227.94;;;9.65;60.14
21623;BME280;10973;46.706;12.340;2023-04-29T03:05:37;87226.47;;;9.67;60.03
21623;BME280;10973;46.706;12.340;2023-04-29T03:08:04;87220.41;;;9.63;59.86
21623;BME280;10973;46.706;12.340;2023-04-29T03:10:31;87228.25;;;9.53;60.01
21623;BME280;10973;46.706;12.340;2023-04-29T03:12:59;87221.50;;;9.59;60.27
21623;BME280;10973;46.706;12.340;2023-04-29T03:15:26;87217.00;;;9.56;60.04
21623;BME280;10973;46.706;12.340;2023-04-29T03:17:53;87208.34;;;9.55;60.30
21623;BME280;10973;46.706;12.340;2023-04-29T03:20:21;87206.09;;;9.54;60.33
21623;BME280;10973;46.706;12.340;2023-04-29T03:22:48;87209.44;;;9.47;60.52
21623;BME280;10973;46.706;12.340;2023-04-29T03:25:15;87204.47;;;9.39;60.49
21623;BME280;10973;46.706;12.340;2023-04-29T03:27:43;87206.38;;;9.38;60.52
21623;BME280;10973;46.706;12.340;2023-04-29T03:30:10;87207.88;;;9.39;60.61
21623;BME280;10973;46.706;12.340;2023-04-29T03:32:38;87209.03;;;9.42;60.60
21623;BME280;10973;46.706;12.340;2023-04-29T03:35:06;87212.03;;;9.40;60.63
21623;BME280;10973;46.706;12.340;2023-04-29T03:37:34;87213.91;;;9.40;60.75
21623;BME280;10973;46.706;12.340;2023-04-29T03:40:02;87215.38;;;9.41;60.58
21623;BME280;10973;46.706;12.340;2023-04-29T03:42:29;87215.75;;;9.39;60.51
21623;BME280;10973;46.706;12.340;2023-04-29T03:44:56;87221.41;;;9.38;60.54
21623;BME280;10973;46.706;12.340;2023-04-29T03:47:24;87220.63;;;9.37;60.58
21623;BME280;10973;46.706;12.340;2023-04-29T03:49:51;87216.91;;;9.38;60.50
21623;BME280;10973;46.706;12.340;2023-04-29T03:52:18;87210.44;;;9.32;60.60
21623;BME280;10973;46.706;12.340;2023-04-29T03:54:46;87208.59;;;9.32;60.70
21623;BME280;10973;46.706;12.340;2023-04-29T03:57:13;87217.59;;;9.31;60.58
21623;BME280;10973;46.706;12.340;2023-04-29T03:59:40;87216.41;;;9.25;60.69
21623;BME280;10973;46.706;12.340;2023-04-29T04:02:07;87217.53;;;9.24;60.76
21623;BME280;10973;46.706;12.340;2023-04-29T04:04:35;87231.44;;;9.25;60.70
21623;BME280;10973;46.706;12.340;2023-04-29T04:07:03;87229.56;;;9.25;60.75
21623;BME280;10973;46.706;12.340;2023-04-29T04:09:30;87240.09;;;9.25;60.20
21623;BME280;10973;46.706;12.340;2023-04-29T04:11:57;87231.38;;;9.18;60.74
21623;BME280;10973;46.706;12.340;2023-04-29T04:14:24;87232.13;;;9.15;60.63
21623;BME280;10973;46.706;12.340;2023-04-29T04:16:52;87226.50;;;9.16;60.87
21623;BME280;10973;46.706;12.340;2023-04-29T04:19:19;87221.63;;;9.15;60.92
21623;BME280;10973;46.706;12.340;2023-04-29T04:21:46;87211.88;;;9.19;60.79
21623;BME280;10973;46.706;12.340;2023-04-29T04:24:14;87209.63;;;9.21;60.77
21623;BME280;10973;46.706;12.340;2023-04-29T04:26:41;87217.91;;;9.23;60.82
21623;BME280;10973;46.706;12.340;2023-04-29T04:29:08;87211.88;;;9.22;60.84
21623;BME280;10973;46.706;12.340;2023-04-29T04:31:36;87219.78;;;9.22;60.81
21623;BME280;10973;46.706;12.340;2023-04-29T04:34:03;87209.25;;;9.22;61.00
21623;BME280;10973;46.706;12.340;2023-04-29T04:36:30;87219.44;;;9.24;60.91
21623;BME280;10973;46.706;12.340;2023-04-29T04:38:58;87213.41;;;9.23;60.75
21623;BME280;10973;46.706;12.340;2023-04-29T04:41:25;87217.19;;;9.26;60.88
21623;BME280;10973;46.706;12.340;2023-04-29T04:43:52;87213.78;;;9.25;61.06
21623;BME280;10973;46.706;12.340;2023-04-29T04:46:19;87219.06;;;9.25;60.91
21623;BME280;10973;46.706;12.340;2023-04-29T04:48:47;87218.69;;;9.27;60.98
21623;BME280;10973;46.706;12.340;2023-04-29T04:51:14;87216.47;;;9.29;61.02
21623;BME280;10973;46.706;12.340;2023-04-29T04:53:41;87218.34;;;9.28;61.18
21623;BME280;10973;46.706;12.340;2023-04-29T04:56:09;87210.44;;;9.32;61.08
21623;BME280;10973;46.706;12.340;2023-04-29T04:58:36;87198.06;;;9.36;60.94
21623;BME280;10973;46.706;12.340;2023-04-29T05:01:03;87198.50;;;9.42;60.86
21623;BME280;10973;46.706;12.340;2023-04-29T05:03:31;87190.22;;;9.43;60.65
21623;BME280;10973;46.706;12.340;2023-04-29T05:06:00;87197.38;;;9.43;60.51
21623;BME280;10973;46.706;12.340;2023-04-29T05:08:27;87203.38;;;9.43;60.53
21623;BME280;10973;46.706;12.340;2023-04-29T05:10:54;87200.41;;;9.48;60.43
21623;BME280;10973;46.706;12.340;2023-04-29T05:13:21;87197.06;;;9.51;60.50
21623;BME280;10973;46.706;12.340;2023-04-29T05:15:49;87198.53;;;9.52;60.48
21623;BME280;10973;46.706;12.340;2023-04-29T05:18:16;87196.34;;;9.58;60.63
21623;BME280;10973;46.706;12.340;2023-04-29T05:20:43;87192.59;;;9.62;60.60
21623;BME280;10973;46.706;12.340;2023-04-29T05:23:10;87195.63;;;9.64;60.47
21623;BME280;10973;46.706;12.340;2023-04-29T05:25:38;87196.75;;;9.70;60.59
21623;BME280;10973;46.706;12.340;2023-04-29T05:28:06;87185.13;;;9.71;60.53
21623;BME280;10973;46.706;12.340;2023-04-29T05:30:34;87194.16;;;9.74;60.38
21623;BME280;10973;46.706;12.340;2023-04-29T05:33:02;87194.16;;;9.74;60.51
21623;BME280;10973;46.706;12.340;2023-04-29T05:35:30;87200.56;;;9.76;60.71
21623;BME280;10973;46.706;12.340;2023-04-29T05:37:57;87197.97;;;9.83;60.68
21623;BME280;10973;46.706;12.340;2023-04-29T05:40:25;87208.09;;;9.78;60.57
21623;BME280;10973;46.706;12.340;2023-04-29T05:42:52;87200.22;;;9.85;60.51
21623;BME280;10973;46.706;12.340;2023-04-29T05:45:20;87204.00;;;9.87;60.44
21623;BME280;10973;46.706;12.340;2023-04-29T05:47:47;87203.63;;;9.89;60.69
21623;BME280;10973;46.706;12.340;2023-04-29T05:50:14;87208.13;;;9.85;61.11
21623;BME280;10973;46.706;12.340;2023-04-29T05:52:42;87199.50;;;9.91;60.65
21623;BME280;10973;46.706;12.340;2023-04-29T05:55:09;87197.97;;;9.90;60.96
21623;BME280;10973;46.706;12.340;2023-04-29T05:57:42;87198.78;;;9.94;61.04
21623;BME280;10973;46.706;12.340;2023-04-29T06:00:12;87198.00;;;9.97;61.01
21623;BME280;10973;46.706;12.340;2023-04-29T06:02:40;87198.81;;;10.01;61.35
21623;BME280;10973;46.706;12.340;2023-04-29T06:05:28;87208.94;;;10.06;61.17
21623;BME280;10973;46.706;12.340;2023-04-29T06:07:56;87211.25;;;10.12;61.12
21623;BME280;10973;46.706;12.340;2023-04-29T06:10:26;87216.56;;;10.15;61.05
21623;BME280;10973;46.706;12.340;2023-04-29T06:12:54;87223.69;;;10.18;61.05
21623;BME280;10973;46.706;12.340;2023-04-29T06:15:21;87226.34;;;10.22;60.92
21623;BME280;10973;46.706;12.340;2023-04-29T06:17:49;87226.38;;;10.29;61.08
21623;BME280;10973;46.706;12.340;2023-04-29T06:20:18;87221.16;;;10.39;60.98
21623;BME280;10973;46.706;12.340;2023-04-29T06:22:45;87221.53;;;10.41;60.95
21623;BME280;10973;46.706;12.340;2023-04-29T06:25:12;87213.66;;;10.45;60.85
21623;BME280;10973;46.706;12.340;2023-04-29T06:27:39;87206.13;;;10.50;60.49
21623;BME280;10973;46.706;12.340;2023-04-29T06:30:07;87206.53;;;10.56;60.75
21623;BME280;10973;46.706;12.340;2023-04-29T06:32:37;87203.88;;;10.56;60.68
21623;BME280;10973;46.706;12.340;2023-04-29T06:35:04;87207.25;;;10.56;60.77
21623;BME280;10973;46.706;12.340;2023-04-29T06:37:32;87202.78;;;10.67;60.26
21623;BME280;10973;46.706;12.340;2023-04-29T06:40:02;87207.66;;;10.69;60.47
21623;BME280;10973;46.706;12.340;2023-04-29T06:42:31;87205.03;;;10.69;60.47
21623;BME280;10973;46.706;12.340;2023-04-29T06:44:58;87214.06;;;10.75;60.58
21623;BME280;10973;46.706;12.340;2023-04-29T06:47:26;87207.31;;;10.81;60.49
21623;BME280;10973;46.706;12.340;2023-04-29T06:49:53;87210.31;;;10.83;60.21
21623;BME280;10973;46.706;12.340;2023-04-29T06:52:21;87213.34;;;10.89;59.95
21623;BME280;10973;46.706;12.340;2023-04-29T06:54:57;87202.03;;;10.92;60.08
21623;BME280;10973;46.706;12.340;2023-04-29T06:57:25;87197.53;;;10.99;59.85
21623;BME280;10973;46.706;12.340;2023-04-29T06:59:52;87192.25;;;11.06;59.77
21623;BME280;10973;46.706;12.340;2023-04-29T07:02:20;87192.63;;;11.15;59.62
21623;BME280;10973;46.706;12.340;2023-04-29T07:04:52;87201.69;;;11.21;59.42
21623;BME280;10973;46.706;12.340;2023-04-29T07:07:19;87198.66;;;11.19;58.99
21623;BME280;10973;46.706;12.340;2023-04-29T07:09:47;87199.41;;;11.23;59.11
21623;BME280;10973;46.706;12.340;2023-04-29T07:12:14;87206.19;;;11.28;58.68
21623;BME280;10973;46.706;12.340;2023-04-29T07:14:41;87197.53;;;11.34;59.02
21623;BME280;10973;46.706;12.340;2023-04-29T07:17:08;87190.72;;;11.47;58.91
21623;BME280;10973;46.706;12.340;2023-04-29T07:19:39;87195.63;;;11.56;58.40
21623;BME280;10973;46.706;12.340;2023-04-29T07:22:06;87197.13;;;11.68;57.69
21623;BME280;10973;46.706;12.340;2023-04-29T07:24:33;87183.16;;;11.78;57.38
21623;BME280;10973;46.706;12.340;2023-04-29T07:27:00;87183.91;;;11.78;57.51
21623;BME280;10973;46.706;12.340;2023-04-29T07:29:28;87179.34;;;11.89;57.44
21623;BME280;10973;46.706;12.340;2023-04-29T07:31:55;87171.03;;;12.01;57.68
21623;BME280;10973;46.706;12.340;2023-04-29T07:34:22;87178.53;;;12.10;57.36
21623;BME280;10973;46.706;12.340;2023-04-29T07:36:49;87174.38;;;12.12;56.87
21623;BME280;10973;46.706;12.340;2023-04-29T07:39:17;87173.59;;;12.19;56.95
21623;BME280;10973;46.706;12.340;2023-04-29T07:41:44;87170.94;;;12.23;57.05
21623;BME280;10973;46.706;12.340;2023-04-29T07:44:11;87169.78;;;12.31;56.96
21623;BME280;10973;46.706;12.340;2023-04-29T07:46:38;87169.72;;;12.41;57.05
21623;BME280;10973;46.706;12.340;2023-04-29T07:49:05;87172.69;;;12.50;56.91
21623;BME280;10973;46.706;12.340;2023-04-29T07:51:33;87175.28;;;12.57;56.95
21623;BME280;10973;46.706;12.340;2023-04-29T07:54:01;87171.84;;;12.64;56.44
21623;BME280;10973;46.706;12.340;2023-04-29T07:56:28;87174.84;;;12.69;56.01
21623;BME280;10973;46.706;12.340;2023-04-29T07:58:55;87171.78;;;12.74;55.66
21623;BME280;10973;46.706;12.340;2023-04-29T08:01:22;87162.31;;;12.77;55.52
21623;BME280;10973;46.706;12.340;2023-04-29T08:03:49;87169.50;;;12.80;55.29
21623;BME280;10973;46.706;12.340;2023-04-29T08:06:17;87165.28;;;12.86;55.23
21623;BME280;10973;46.706;12.340;2023-04-29T08:08:45;87158.84;;;12.90;55.75
21623;BME280;10973;46.706;12.340;2023-04-29T08:11:17;87151.56;;;13.02;55.49
21623;BME280;10973;46.706;12.340;2023-04-29T08:13:45;87162.13;;;13.09;54.45
21623;BME280;10973;46.706;12.340;2023-04-29T08:16:12;87157.59;;;13.13;54.44
21623;BME280;10973;46.706;12.340;2023-04-29T08:18:40;87166.56;;;13.22;54.26
21623;BME280;10973;46.706;12.340;2023-04-29T08:21:07;87166.91;;;13.28;53.87
21623;BME280;10973;46.706;12.340;2023-04-29T08:23:35;87152.09;;;13.37;53.45
21623;BME280;10973;46.706;12.340;2023-04-29T08:26:02;87157.34;;;13.41;53.69
21623;BME280;10973;46.706;12.340;2023-04-29T08:28:29;87155.09;;;13.39;53.46
21623;BME280;10973;46.706;12.340;2023-04-29T08:30:57;87148.63;;;13.44;53.34
21623;BME280;10973;46.706;12.340;2023-04-29T08:33:24;87141.09;;;13.39;53.13
21623;BME280;10973;46.706;12.340;2023-04-29T08:35:57;87150.41;;;13.54;53.44
21623;BME280;10973;46.706;12.340;2023-04-29T08:38:28;87143.16;;;13.65;51.87
21623;BME280;10973;46.706;12.340;2023-04-29T08:40:58;87137.06;;;13.68;51.89
21623;BME280;10973;46.706;12.340;2023-04-29T08:43:28;87141.44;;;13.82;51.61
21623;BME280;10973;46.706;12.340;2023-04-29T08:45:58;87141.78;;;13.87;51.86
21623;BME280;10973;46.706;12.340;2023-04-29T08:48:27;87144.38;;;13.91;51.62
21623;BME280;10973;46.706;12.340;2023-04-29T08:50:56;87146.94;;;14.01;51.26
21623;BME280;10973;46.706;12.340;2023-04-29T08:53:23;87143.09;;;14.06;51.40
21623;BME280;10973;46.706;12.340;2023-04-29T08:55:53;87142.00;;;14.03;51.82
21623;BME280;10973;46.706;12.340;2023-04-29T08:58:23;87142.97;;;14.16;51.40
21623;BME280;10973;46.706;12.340;2023-04-29T09:00:51;87139.06;;;14.28;50.25
21623;BME280;10973;46.706;12.340;2023-04-29T09:04:03;87130.59;;;14.40;50.25
21623;BME280;10973;46.706;12.340;2023-04-29T09:06:35;87139.69;;;14.39;50.11
21623;BME280;10973;46.706;12.340;2023-04-29T09:09:03;87141.09;;;14.47;50.10
21623;BME280;10973;46.706;12.340;2023-04-29T09:11:32;87134.22;;;14.53;49.66
21623;BME280;10973;46.706;12.340;2023-04-29T09:14:01;87135.97;;;14.63;49.64
21623;BME280;10973;46.706;12.340;2023-04-29T09:16:29;87128.25;;;14.76;49.17
21623;BME280;10973;46.706;12.340;2023-04-29T09:18:57;87137.94;;;14.86;49.10
21623;BME280;10973;46.706;12.340;2023-04-29T09:21:28;87127.56;;;14.95;48.43
21623;BME280;10973;46.706;12.340;2023-04-29T09:24:01;87124.44;;;15.04;48.35
21623;BME280;10973;46.706;12.340;2023-04-29T09:26:42;87125.88;;;15.08;48.12
21623;BME280;10973;46.706;12.340;2023-04-29T09:29:12;87114.00;;;15.16;47.57
21623;BME280;10973;46.706;12.340;2023-04-29T09:31:41;87118.03;;;15.24;47.11
21623;BME280;10973;46.706;12.340;2023-04-29T09:34:09;87116.09;;;15.28;48.09
21623;BME280;10973;46.706;12.340;2023-04-29T09:36:49;87112.91;;;15.37;47.24
21623;BME280;10973;46.706;12.340;2023-04-29T09:39:22;87114.28;;;15.48;47.53
21623;BME280;10973;46.706;12.340;2023-04-29T09:44:25;87108.72;;;15.62;45.31
21623;BME280;10973;46.706;12.340;2023-04-29T09:47:02;87104.38;;;15.72;44.70
21623;BME280;10973;46.706;12.340;2023-04-29T09:49:33;87103.84;;;15.81;44.23
21623;BME280;10973;46.706;12.340;2023-04-29T09:52:04;87105.22;;;15.89;44.90
21623;BME280;10973;46.706;12.340;2023-04-29T09:54:33;87107.31;;;15.97;42.48
21623;BME280;10973;46.706;12.340;2023-04-29T09:57:03;87109.47;;;16.06;42.52
21623;BME280;10973;46.706;12.340;2023-04-29T09:59:35;87107.66;;;15.99;43.56
21623;BME280;10973;46.706;12.340;2023-04-29T10:02:18;87114.56;;;16.16;43.13
21623;BME280;10973;46.706;12.340;2023-04-29T10:04:52;87107.13;;;16.27;41.95
21623;BME280;10973;46.706;12.340;2023-04-29T10:07:21;87103.16;;;16.35;42.11
21623;BME280;10973;46.706;12.340;2023-04-29T10:09:49;87103.72;;;16.47;42.03
21623;BME280;10973;46.706;12.340;2023-04-29T10:12:19;87105.78;;;16.59;41.86
21623;BME280;10973;46.706;12.340;2023-04-29T10:15:03;87096.91;;;16.65;42.22
21623;BME280;10973;46.706;12.340;2023-04-29T10:20:40;87091.56;;;16.85;40.44
21623;BME280;10973;46.706;12.340;2023-04-29T10:23:10;87094.78;;;16.92;38.53
21623;BME280;10973;46.706;12.340;2023-04-29T10:25:40;87091.88;;;16.87;39.46
21623;BME280;10973;46.706;12.340;2023-04-29T10:28:14;87092.66;;;17.03;39.56
21623;BME280;10973;46.706;12.340;2023-04-29T10:30:44;87090.41;;;17.02;37.64
21623;BME280;10973;46.706;12.340;2023-04-29T10:33:15;87087.84;;;17.15;38.16
21623;BME280;10973;46.706;12.340;2023-04-29T10:35:47;87076.66;;;17.20;36.32
21623;BME280;10973;46.706;12.340;2023-04-29T10:38:33;87079.00;;;17.34;36.29
21623;BME280;10973;46.706;12.340;2023-04-29T10:41:08;87077.16;;;17.47;35.56
21623;BME280;10973;46.706;12.340;2023-04-29T10:43:36;87075.69;;;17.62;35.54
21623;BME280;10973;46.706;12.340;2023-04-29T10:46:16;87068.75;;;17.80;34.41
21623;BME280;10973;46.706;12.340;2023-04-29T10:48:49;87071.41;;;17.97;34.43
21623;BME280;10973;46.706;12.340;2023-04-29T10:51:43;87058.34;;;18.15;33.79
21623;BME280;10973;46.706;12.340;2023-04-29T10:54:16;87068.47;;;18.20;33.56
21623;BME280;10973;46.706;12.340;2023-04-29T10:56:47;87062.88;;;18.30;32.53
21623;BME280;10973;46.706;12.340;2023-04-29T11:02:03;87063.28;;;18.29;32.29
21623;BME280;10973;46.706;12.340;2023-04-29T11:04:30;87055.69;;;18.15;31.40
21623;BME280;10973;46.706;12.340;2023-04-29T11:06:58;87062.28;;;18.10;31.03
21623;BME280;10973;46.706;12.340;2023-04-29T11:09:30;87063.44;;;18.09;30.99
21623;BME280;10973;46.706;12.340;2023-04-29T11:12:04;87058.56;;;18.20;30.87
21623;BME280;10973;46.706;12.340;2023-04-29T11:14:38;87048.78;;;18.42;31.58
21623;BME280;10973;46.706;12.340;2023-04-29T11:17:14;87045.69;;;18.73;30.81
21623;BME280;10973;46.706;12.340;2023-04-29T11:19:50;87048.47;;;18.82;30.25
21623;BME280;10973;46.706;12.340;2023-04-29T11:24:58;87044.41;;;19.15;29.87
21623;BME280;10973;46.706;12.340;2023-04-29T11:27:31;87050.81;;;19.30;29.12
21623;BME280;10973;46.706;12.340;2023-04-29T11:30:02;87040.00;;;19.59;29.33
21623;BME280;10973;46.706;12.340;2023-04-29T11:32:35;87052.38;;;19.78;28.93
21623;BME280;10973;46.706;12.340;2023-04-29T11:35:21;87055.31;;;19.92;27.73
21623;BME280;10973;46.706;12.340;2023-04-29T11:37:48;87048.59;;;20.22;27.91
21623;BME280;10973;46.706;12.340;2023-04-29T11:40:15;87061.25;;;20.43;27.56
21623;BME280;10973;46.706;12.340;2023-04-29T11:42:46;87041.97;;;20.48;26.45
21623;BME280;10973;46.706;12.340;2023-04-29T11:45:16;87051.59;;;20.68;26.28
21623;BME280;10973;46.706;12.340;2023-04-29T11:47:45;87042.72;;;20.80;24.69
21623;BME280;10973;46.706;12.340;2023-04-29T11:50:15;87042.06;;;20.97;25.06
21623;BME280;10973;46.706;12.340;2023-04-29T11:52:45;87049.91;;;21.13;25.74
21623;BME280;10973;46.706;12.340;2023-04-29T11:55:13;87047.00;;;21.29;25.16
21623;BME280;10973;46.706;12.340;2023-04-29T11:57:40;87047.06;;;21.48;25.12
21623;BME280;10973;46.706;12.340;2023-04-29T12:00:12;87040.38;;;21.52;25.18
21623;BME280;10973;46.706;12.340;2023-04-29T12:02:44;87042.91;;;21.56;25.57
21623;BME280;10973;46.706;12.340;2023-04-29T12:05:13;87058.31;;;21.64;25.57
21623;BME280;10973;46.706;12.340;2023-04-29T12:07:42;87044.16;;;21.73;25.34
21623;BME280;10973;46.706;12.340;2023-04-29T12:10:10;87050.34;;;21.91;24.50
21623;BME280;10973;46.706;12.340;2023-04-29T12:12:42;87037.53;;;21.95;24.78
21623;BME280;10973;46.706;12.340;2023-04-29T12:15:11;87035.44;;;21.99;24.34
21623;BME280;10973;46.706;12.340;2023-04-29T12:17:39;87029.78;;;22.07;24.95
21623;BME280;10973;46.706;12.340;2023-04-29T12:20:08;87040.06;;;22.17;23.70
21623;BME280;10973;46.706;12.340;2023-04-29T12:22:37;87042.31;;;22.00;25.05
21623;BME280;10973;46.706;12.340;2023-04-29T12:25:06;87033.03;;;21.92;24.99
21623;BME280;10973;46.706;12.340;2023-04-29T12:27:35;87026.22;;;22.10;24.54
21623;BME280;10973;46.706;12.340;2023-04-29T12:30:09;87030.09;;;22.18;24.37
21623;BME280;10973;46.706;12.340;2023-04-29T12:32:37;87029.50;;;22.32;24.75
21623;BME280;10973;46.706;12.340;2023-04-29T12:35:05;87029.03;;;22.42;23.44
21623;BME280;10973;46.706;12.340;2023-04-29T12:37:32;87032.47;;;22.43;23.71
21623;BME280;10973;46.706;12.340;2023-04-29T12:40:00;87026.97;;;22.46;24.40
21623;BME280;10973;46.706;12.340;2023-04-29T12:42:33;87025.16;;;22.52;23.89
21623;BME280;10973;46.706;12.340;2023-04-29T12:45:00;87026.97;;;22.46;23.67
21623;BME280;10973;46.706;12.340;2023-04-29T12:47:32;87023.09;;;22.29;23.48
21623;BME280;10973;46.706;12.340;2023-04-29T12:50:00;87022.63;;;22.40;23.48
21623;BME280;10973;46.706;12.340;2023-04-29T12:52:27;87017.41;;;22.36;23.98
21623;BME280;10973;46.706;12.340;2023-04-29T12:54:56;87020.84;;;22.37;24.41
21623;BME280;10973;46.706;12.340;2023-04-29T12:57:23;87031.44;;;22.40;24.50
21623;BME280;10973;46.706;12.340;2023-04-29T12:59:50;87021.59;;;22.37;23.65
21623;BME280;10973;46.706;12.340;2023-04-29T13:02:18;87018.59;;;22.44;24.19
21623;BME280;10973;46.706;12.340;2023-04-29T13:04:45;87019.03;;;22.52;24.14
21623;BME280;10973;46.706;12.340;2023-04-29T13:07:13;87015.63;;;22.60;22.76
21623;BME280;10973;46.706;12.340;2023-04-29T13:09:40;87013.84;;;22.66;23.19
21623;BME280;10973;46.706;12.340;2023-04-29T13:12:08;87012.31;;;22.84;23.21
21623;BME280;10973;46.706;12.340;2023-04-29T13:14:35;87014.22;;;22.92;23.06
21623;BME280;10973;46.706;12.340;2023-04-29T13:17:03;87002.75;;;22.92;23.31
21623;BME280;10973;46.706;12.340;2023-04-29T13:19:33;87007.63;;;23.02;23.16
21623;BME280;10973;46.706;12.340;2023-04-29T13:22:17;87002.44;;;22.99;23.47
21623;BME280;10973;46.706;12.340;2023-04-29T13:24:44;86998.53;;;23.00;22.83
21623;BME280;10973;46.706;12.340;2023-04-29T13:27:11;87002.09;;;23.06;23.12
21623;BME280;10973;46.706;12.340;2023-04-29T13:29:39;86992.53;;;23.14;23.02